Time;durP1;ratioP1;P1;durP2;ratioP2;P2;SDS_P1;SDS_P2;PMS_P1;PMS_P2;Temp;Humidity;BMP_temperature;BMP_pressure;BME280_temperature;BME280_humidity;BME280_pressure;Samples;Min_cycle;Max_cycle;Signal;HPM_P1;HPM_P2
2022/02/07 00:01:40;;;;;;;2.50;2.00;;;;;;;;;;5121310;28;20201;-72
2022/02/07 00:04:12;;;;;;;2.03;1.37;;;;;;;;;;5121314;28;20201;-72
2022/02/07 00:06:40;;;;;;;2.13;1.77;;;;;;;;;;5120680;28;20227;-72
2022/02/07 00:09:08;;;;;;;2.30;1.60;;;;;;;;;;5121542;28;20208;-73
2022/02/07 00:11:36;;;;;;;2.70;1.80;;;;;;;;;;5121026;28;20545;-72
2022/02/07 00:14:03;;;;;;;1.53;1.43;;;;;;;;;;5121257;28;20224;-73
2022/02/07 00:16:32;;;;;;;2.07;1.40;;;;;;;;;;5121114;28;20231;-73
2022/02/07 00:19:00;;;;;;;2.20;1.40;;;;;;;;;;5114884;28;20684;-73
2022/02/07 00:21:30;;;;;;;1.97;1.87;;;;;;;;;;5120179;28;20660;-73
2022/02/07 00:23:57;;;;;;;4.83;2.67;;;;;;;;;;5121091;27;20196;-73
2022/02/07 00:26:25;;;;;;;2.57;2.13;;;;;;;;;;5120476;28;20222;-73
2022/02/07 00:28:54;;;;;;;2.97;1.97;;;;;;;;;;5120565;27;20204;-72
2022/02/07 00:31:22;;;;;;;4.07;2.17;;;;;;;;;;5120974;28;20201;-72
2022/02/07 00:33:50;;;;;;;3.40;1.83;;;;;;;;;;5120347;28;20204;-72
2022/02/07 00:36:18;;;;;;;1.80;1.70;;;;;;;;;;5120959;28;20217;-72
2022/02/07 00:38:51;;;;;;;2.07;1.70;;;;;;;;;;5120421;27;20211;-72
2022/02/07 00:41:22;;;;;;;2.60;2.23;;;;;;;;;;5120443;28;20201;-72
2022/02/07 00:43:56;;;;;;;3.97;2.07;;;;;;;;;;5120240;28;20201;-72
2022/02/07 00:46:33;;;;;;;5.00;2.23;;;;;;;;;;5120646;28;20228;-72
2022/02/07 00:49:01;;;;;;;4.60;2.30;;;;;;;;;;5120166;28;20232;-72
2022/02/07 00:51:29;;;;;;;3.00;2.67;;;;;;;;;;5120342;28;20209;-72
2022/02/07 00:54:00;;;;;;;4.37;3.00;;;;;;;;;;5120008;28;20196;-72
2022/02/07 00:56:28;;;;;;;3.90;2.60;;;;;;;;;;5119815;28;20221;-73
2022/02/07 00:58:56;;;;;;;3.47;2.60;;;;;;;;;;5120226;27;20207;-72
2022/02/07 01:01:27;;;;;;;3.23;2.90;;;;;;;;;;5119899;28;20200;-72
2022/02/07 01:03:55;;;;;;;4.33;3.00;;;;;;;;;;5120154;28;20213;-72
2022/02/07 01:06:23;;;;;;;5.47;3.33;;;;;;;;;;5107228;28;20227;-72
2022/02/07 01:09:03;;;;;;;5.17;3.63;;;;;;;;;;5120005;28;20267;-73
2022/02/07 01:11:47;;;;;;;4.70;3.20;;;;;;;;;;5108598;28;20220;-72
2022/02/07 01:14:16;;;;;;;4.20;3.10;;;;;;;;;;5119822;28;20197;-73
2022/02/07 01:17:20;;;;;;;6.33;3.73;;;;;;;;;;5120165;28;20229;-72
2022/02/07 01:20:13;;;;;;;6.53;3.57;;;;;;;;;;5113454;28;20219;-72
2022/02/07 01:48:07;;;;;;;6.23;4.30;;;;;;;;;;5061725;28;20231;-72
2022/02/07 01:53:40;;;;;;;4.27;3.87;;;;;;;;;;5094033;28;20216;-72
2022/02/07 01:56:09;;;;;;;4.37;3.97;;;;;;;;;;5118780;28;20224;-72
2022/02/07 01:58:37;;;;;;;4.87;3.97;;;;;;;;;;5119347;28;20211;-72
2022/02/07 02:01:07;;;;;;;3.67;3.37;;;;;;;;;;5119045;28;20211;-72
2022/02/07 02:03:35;;;;;;;4.43;4.00;;;;;;;;;;5118833;28;20209;-72
2022/02/07 02:06:07;;;;;;;3.67;3.37;;;;;;;;;;5118718;28;20220;-72
2022/02/07 02:08:35;;;;;;;4.97;3.87;;;;;;;;;;5117664;28;20200;-72
2022/02/07 02:11:02;;;;;;;4.10;3.60;;;;;;;;;;5118623;28;20569;-72
2022/02/07 02:13:43;;;;;;;5.60;3.80;;;;;;;;;;5118990;28;20657;-72
2022/02/07 02:16:18;;;;;;;4.53;3.80;;;;;;;;;;5118374;28;20220;-72
2022/02/07 02:19:26;;;;;;;6.37;4.40;;;;;;;;;;5118529;28;20204;-72
2022/02/07 02:33:46;;;;;;;4.47;3.73;;;;;;;;;;5059032;28;20217;-72
2022/02/07 02:36:22;;;;;;;6.80;4.27;;;;;;;;;;5113198;28;20229;-72
2022/02/07 02:45:22;;;;;;;6.50;3.70;;;;;;;;;;5118640;28;20201;-72
2022/02/07 02:47:18;;;;;;;5.67;4.00;;;;;;;;;;5107396;28;20231;-72
2022/02/07 02:49:49;;;;;;;5.87;3.90;;;;;;;;;;5117828;28;20232;-72
2022/02/07 02:52:17;;;;;;;3.93;3.33;;;;;;;;;;5118190;28;20219;-72
2022/02/07 02:54:47;;;;;;;4.83;4.17;;;;;;;;;;5117967;28;20206;-72
2022/02/07 02:57:14;;;;;;;4.67;3.70;;;;;;;;;;5112917;28;20217;-72
2022/02/07 02:59:42;;;;;;;5.17;4.43;;;;;;;;;;5118119;28;20211;-72
2022/02/07 03:02:10;;;;;;;4.67;3.80;;;;;;;;;;5118360;28;20204;-72
2022/02/07 03:04:38;;;;;;;8.77;4.10;;;;;;;;;;5117532;28;20211;-72
2022/02/07 03:07:06;;;;;;;5.37;3.90;;;;;;;;;;5117610;28;20208;-72
2022/02/07 03:09:34;;;;;;;5.43;4.10;;;;;;;;;;5118254;28;20292;-72
2022/02/07 03:12:05;;;;;;;5.80;4.23;;;;;;;;;;5116406;28;20192;-72
2022/02/07 03:14:43;;;;;;;6.50;4.40;;;;;;;;;;5118225;28;20215;-72
2022/02/07 03:17:09;;;;;;;4.50;3.97;;;;;;;;;;5117786;28;20227;-72
2022/02/07 03:19:37;;;;;;;5.63;3.90;;;;;;;;;;5109052;28;20661;-72
2022/02/07 03:22:06;;;;;;;9.50;4.60;;;;;;;;;;5122009;27;20204;-72
2022/02/07 03:24:34;;;;;;;10.67;4.60;;;;;;;;;;5121954;28;20211;-72
2022/02/07 03:27:02;;;;;;;4.57;3.87;;;;;;;;;;5122020;28;20223;-72
2022/02/07 03:29:32;;;;;;;5.47;3.77;;;;;;;;;;5121840;28;20287;-72
2022/02/07 03:32:00;;;;;;;6.50;3.70;;;;;;;;;;5121884;28;20209;-72
2022/02/07 03:34:28;;;;;;;9.43;3.80;;;;;;;;;;5122040;28;20211;-72
2022/02/07 03:36:56;;;;;;;6.57;4.03;;;;;;;;;;5121515;28;20220;-72
2022/02/07 03:39:24;;;;;;;5.27;2.87;;;;;;;;;;5121951;28;20200;-72
2022/02/07 03:41:52;;;;;;;4.07;2.70;;;;;;;;;;5108705;28;20210;-73
2022/02/07 03:44:20;;;;;;;3.17;2.70;;;;;;;;;;5121977;28;20207;-73
2022/02/07 03:46:49;;;;;;;3.93;2.63;;;;;;;;;;5121444;28;20252;-73
2022/02/07 03:49:17;;;;;;;3.00;2.70;;;;;;;;;;5121172;28;20229;-72
2022/02/07 03:51:46;;;;;;;4.17;2.40;;;;;;;;;;5121028;28;20670;-73
2022/02/07 03:54:14;;;;;;;3.63;2.77;;;;;;;;;;5121435;28;20239;-72
2022/02/07 03:56:42;;;;;;;2.90;2.50;;;;;;;;;;5120849;28;20227;-73
2022/02/07 03:59:14;;;;;;;2.93;2.30;;;;;;;;;;5121831;28;20287;-73
2022/02/07 04:01:44;;;;;;;2.93;2.47;;;;;;;;;;5121111;27;20201;-73
2022/02/07 04:04:13;;;;;;;1.97;1.60;;;;;;;;;;5121480;28;20204;-71
2022/02/07 04:06:42;;;;;;;3.53;1.77;;;;;;;;;;5120688;28;20301;-72
2022/02/07 04:09:13;;;;;;;2.33;1.80;;;;;;;;;;5121181;27;20208;-72
2022/02/07 04:11:46;;;;;;;2.20;1.60;;;;;;;;;;5120874;28;20197;-73
2022/02/07 04:14:20;;;;;;;1.43;1.33;;;;;;;;;;5121235;28;20222;-72
2022/02/07 04:16:49;;;;;;;2.63;1.70;;;;;;;;;;5120966;27;20227;-73
2022/02/07 04:19:20;;;;;;;1.40;1.30;;;;;;;;;;5121243;28;20205;-71
2022/02/07 04:21:50;;;;;;;1.70;1.60;;;;;;;;;;5120879;27;20201;-72
2022/02/07 04:24:19;;;;;;;1.20;1.10;;;;;;;;;;5121405;27;20209;-73
2022/02/07 04:26:47;;;;;;;2.43;1.13;;;;;;;;;;5120368;28;20213;-72
2022/02/07 04:29:15;;;;;;;1.30;0.97;;;;;;;;;;5121170;28;20204;-72
2022/02/07 04:31:42;;;;;;;1.20;1.10;;;;;;;;;;5119448;28;20207;-72
2022/02/07 04:34:10;;;;;;;3.50;1.00;;;;;;;;;;5120605;28;20623;-72
2022/02/07 04:36:41;;;;;;;1.70;1.07;;;;;;;;;;5120015;28;20232;-72
2022/02/07 04:39:09;;;;;;;1.60;0.70;;;;;;;;;;5120280;28;20193;-73
2022/02/07 04:41:40;;;;;;;4.37;0.90;;;;;;;;;;5120808;28;20258;-72
2022/02/07 04:44:11;;;;;;;2.73;0.60;;;;;;;;;;5120592;28;20265;-72
2022/02/07 04:46:52;;;;;;;1.53;1.23;;;;;;;;;;5120730;28;20232;-72
2022/02/07 04:49:39;;;;;;;1.90;0.90;;;;;;;;;;5119958;28;20229;-72
2022/02/07 04:52:21;;;;;;;0.97;0.80;;;;;;;;;;5120544;28;20204;-72
2022/02/07 04:54:59;;;;;;;2.20;0.70;;;;;;;;;;5120436;28;20200;-72
2022/02/07 04:57:49;;;;;;;3.00;0.63;;;;;;;;;;5120071;28;20306;-72
2022/02/07 05:00:40;;;;;;;1.17;0.50;;;;;;;;;;5119919;27;20205;-72
2022/02/07 05:03:13;;;;;;;1.50;0.80;;;;;;;;;;5120368;28;20209;-72
2022/02/07 05:13:59;;;;;;;1.20;0.83;;;;;;;;;;5120117;28;20196;-72
2022/02/07 05:16:27;;;;;;;0.93;0.50;;;;;;;;;;5119591;28;20237;-72
2022/02/07 05:18:57;;;;;;;1.67;0.80;;;;;;;;;;5119166;28;20268;-72
2022/02/07 05:21:25;;;;;;;2.10;0.77;;;;;;;;;;5119615;28;20213;-72
2022/02/07 05:23:54;;;;;;;0.50;0.50;;;;;;;;;;5119983;27;20201;-72
2022/02/07 05:26:23;;;;;;;2.10;0.40;;;;;;;;;;5119648;28;20225;-72
2022/02/07 05:28:51;;;;;;;3.30;0.60;;;;;;;;;;5119453;28;20211;-72
2022/02/07 05:31:21;;;;;;;1.07;0.60;;;;;;;;;;5119752;28;20201;-72
2022/02/07 05:33:49;;;;;;;1.13;0.67;;;;;;;;;;5119213;28;20204;-72
2022/02/07 05:36:17;;;;;;;1.67;0.73;;;;;;;;;;5119103;28;20231;-72
2022/02/07 05:38:48;;;;;;;0.60;0.60;;;;;;;;;;5119441;27;20197;-72
2022/02/07 05:41:19;;;;;;;1.43;0.50;;;;;;;;;;5119372;28;20570;-72
2022/02/07 05:43:50;;;;;;;0.67;0.50;;;;;;;;;;5119377;28;20228;-72
2022/02/07 05:46:18;;;;;;;0.60;0.40;;;;;;;;;;5119210;28;20768;-72
2022/02/07 05:48:46;;;;;;;0.60;0.60;;;;;;;;;;5118246;28;20232;-72
2022/02/07 05:51:14;;;;;;;1.00;0.90;;;;;;;;;;5119122;27;20204;-72
2022/02/07 05:53:42;;;;;;;2.07;1.60;;;;;;;;;;5117328;28;20288;-72
2022/02/07 05:56:10;;;;;;;0.93;0.80;;;;;;;;;;5110486;28;20303;-71
2022/02/07 05:58:39;;;;;;;1.80;0.67;;;;;;;;;;5118756;28;20288;-72
2022/02/07 06:01:07;;;;;;;0.67;0.60;;;;;;;;;;5119311;28;20209;-72
2022/02/07 06:03:35;;;;;;;2.40;0.80;;;;;;;;;;5118546;28;20672;-72
2022/02/07 06:06:04;;;;;;;5.70;1.27;;;;;;;;;;5118847;28;20224;-72
2022/02/07 06:08:32;;;;;;;1.47;0.60;;;;;;;;;;5118831;28;20201;-71
2022/02/07 06:11:01;;;;;;;0.67;0.67;;;;;;;;;;5118287;28;20575;-72
2022/02/07 06:13:29;;;;;;;0.87;0.87;;;;;;;;;;5119157;28;20211;-72
2022/02/07 06:15:59;;;;;;;2.77;0.80;;;;;;;;;;5118389;28;20216;-72
2022/02/07 06:18:28;;;;;;;1.10;0.77;;;;;;;;;;5115121;28;20221;-72
2022/02/07 06:21:01;;;;;;;1.93;1.10;;;;;;;;;;5113688;28;20215;-72
2022/02/07 06:23:29;;;;;;;1.30;0.77;;;;;;;;;;5118133;28;20446;-72
2022/02/07 06:25:57;;;;;;;0.60;0.60;;;;;;;;;;5118915;28;20229;-72
2022/02/07 06:28:25;;;;;;;1.27;1.03;;;;;;;;;;5118202;28;20833;-72
2022/02/07 06:30:53;;;;;;;0.80;0.70;;;;;;;;;;5118551;28;20443;-72
2022/02/07 06:33:22;;;;;;;5.33;1.37;;;;;;;;;;5118687;28;20205;-72
2022/02/07 06:35:51;;;;;;;1.63;0.97;;;;;;;;;;5118391;28;20205;-72
2022/02/07 06:38:19;;;;;;;3.10;0.80;;;;;;;;;;5118292;28;20223;-72
2022/02/07 06:40:47;;;;;;;1.53;1.30;;;;;;;;;;5117845;28;20925;-72
2022/02/07 06:43:14;;;;;;;4.17;1.03;;;;;;;;;;5118402;28;20213;-72
2022/02/07 06:45:42;;;;;;;0.73;0.73;;;;;;;;;;5118154;28;20196;-72
2022/02/07 06:48:10;;;;;;;1.43;1.07;;;;;;;;;;5117759;28;20550;-72
2022/02/07 06:50:40;;;;;;;1.27;1.03;;;;;;;;;;5117938;28;20601;-71
2022/02/07 06:53:08;;;;;;;1.80;0.93;;;;;;;;;;5117428;28;20208;-72
2022/02/07 06:55:36;;;;;;;2.30;1.33;;;;;;;;;;5118088;28;20201;-72
2022/02/07 06:58:04;;;;;;;3.13;1.07;;;;;;;;;;5118824;28;20221;-72
2022/02/07 07:00:32;;;;;;;1.53;1.10;;;;;;;;;;5115378;28;20227;-72
2022/02/07 07:03:00;;;;;;;3.80;1.20;;;;;;;;;;5110568;28;20204;-72
2022/02/07 07:05:28;;;;;;;3.50;1.13;;;;;;;;;;5117567;28;20193;-72
2022/02/07 07:08:02;;;;;;;3.00;1.07;;;;;;;;;;5117673;28;20208;-72
2022/02/07 07:10:30;;;;;;;2.43;0.93;;;;;;;;;;5117830;28;20211;-72
2022/02/07 07:13:04;;;;;;;3.87;1.10;;;;;;;;;;5118397;28;20236;-72
2022/02/07 07:15:39;;;;;;;1.90;1.73;;;;;;;;;;5116640;28;20215;-72
2022/02/07 07:18:07;;;;;;;1.37;1.30;;;;;;;;;;5117770;28;20702;-72
2022/02/07 07:20:35;;;;;;;2.73;1.13;;;;;;;;;;5117646;28;20201;-72
2022/02/07 07:23:04;;;;;;;1.70;0.90;;;;;;;;;;5116994;28;20201;-71
2022/02/07 07:25:36;;;;;;;3.40;1.40;;;;;;;;;;5118083;28;20208;-72
2022/02/07 07:28:07;;;;;;;2.00;0.97;;;;;;;;;;5117714;28;20755;-72
2022/02/07 07:30:42;;;;;;;3.50;1.90;;;;;;;;;;5118366;28;20291;-72
2022/02/07 07:33:14;;;;;;;3.47;2.30;;;;;;;;;;5117295;28;20223;-72
2022/02/07 07:35:42;;;;;;;5.30;1.30;;;;;;;;;;5117312;28;20678;-72
2022/02/07 07:38:12;;;;;;;11.60;1.60;;;;;;;;;;5117426;28;20225;-72
2022/02/07 07:40:40;;;;;;;6.50;1.60;;;;;;;;;;5117635;28;20207;-72
2022/02/07 07:43:10;;;;;;;4.17;1.40;;;;;;;;;;5117657;28;20735;-72
2022/02/07 07:45:46;;;;;;;2.37;1.20;;;;;;;;;;5117415;28;20254;-72
2022/02/07 07:48:19;;;;;;;1.77;0.97;;;;;;;;;;5117804;28;20288;-72
2022/02/07 07:50:53;;;;;;;4.23;1.67;;;;;;;;;;5077224;28;20209;-72
2022/02/07 07:53:31;;;;;;;1.23;1.13;;;;;;;;;;5077035;28;20212;-72
2022/02/07 08:01:45;;;;;;;6.00;1.10;;;;;;;;;;5077247;28;20209;-72
2022/02/07 08:04:16;;;;;;;1.50;1.30;;;;;;;;;;5076498;28;20676;-72
2022/02/07 08:06:50;;;;;;;5.57;1.70;;;;;;;;;;5080415;28;20230;-72
2022/02/07 08:09:35;;;;;;;1.83;1.40;;;;;;;;;;5080320;28;20194;-72
2022/02/07 08:12:04;;;;;;;1.43;1.33;;;;;;;;;;5080645;28;20213;-72
2022/02/07 08:14:35;;;;;;;2.20;1.30;;;;;;;;;;5080481;28;20210;-72
2022/02/07 08:17:23;;;;;;;4.03;1.37;;;;;;;;;;5080427;28;20230;-72
2022/02/07 08:19:52;;;;;;;1.93;1.00;;;;;;;;;;5074869;28;20202;-72
2022/02/07 08:22:23;;;;;;;2.67;1.50;;;;;;;;;;5080176;28;20217;-72
2022/02/07 08:24:55;;;;;;;2.20;1.00;;;;;;;;;;5080294;28;20216;-72
2022/02/07 08:27:24;;;;;;;2.93;1.00;;;;;;;;;;5080441;28;20700;-72
2022/02/07 08:29:53;;;;;;;7.13;1.13;;;;;;;;;;5079993;28;20205;-72
2022/02/07 08:32:21;;;;;;;5.40;1.67;;;;;;;;;;5080078;28;20232;-72
2022/02/07 08:34:49;;;;;;;5.37;1.37;;;;;;;;;;5080207;28;20206;-72
2022/02/07 08:37:17;;;;;;;3.87;1.43;;;;;;;;;;5080014;28;20232;-72
2022/02/07 08:39:45;;;;;;;1.53;1.10;;;;;;;;;;5080036;28;20224;-72
2022/02/07 08:42:14;;;;;;;4.90;1.47;;;;;;;;;;5079950;28;20206;-72
2022/02/07 08:44:42;;;;;;;1.93;1.00;;;;;;;;;;5079845;28;20284;-72
2022/02/07 08:47:10;;;;;;;4.73;2.87;;;;;;;;;;5080105;28;20222;-72
2022/02/07 08:49:39;;;;;;;5.50;1.83;;;;;;;;;;5101011;28;20255;-72
2022/02/07 08:52:07;;;;;;;4.13;1.27;;;;;;;;;;5120409;28;20215;-72
2022/02/07 08:54:35;;;;;;;7.83;1.43;;;;;;;;;;5119907;28;20565;-72
2022/02/07 08:57:13;;;;;;;4.30;1.27;;;;;;;;;;5120458;28;20228;-72
2022/02/07 08:59:55;;;;;;;4.60;2.03;;;;;;;;;;5119761;28;20220;-71
2022/02/07 09:02:49;;;;;;;3.43;1.50;;;;;;;;;;5120152;28;20284;-72
2022/02/07 09:05:24;;;;;;;7.57;1.50;;;;;;;;;;5120112;28;20193;-72
2022/02/07 09:08:06;;;;;;;4.13;1.40;;;;;;;;;;5120091;28;20240;-72
2022/02/07 09:10:34;;;;;;;1.30;1.20;;;;;;;;;;5120093;28;20656;-72
2022/02/07 09:13:02;;;;;;;2.33;1.07;;;;;;;;;;5120295;28;20219;-72
2022/02/07 09:15:42;;;;;;;4.47;1.33;;;;;;;;;;5119938;28;20208;-71
2022/02/07 09:18:12;;;;;;;2.77;1.47;;;;;;;;;;5118267;28;20235;-72
2022/02/07 09:20:41;;;;;;;2.43;1.13;;;;;;;;;;5118544;28;20205;-72
2022/02/07 09:23:09;;;;;;;5.83;1.50;;;;;;;;;;5120045;28;20211;-72
2022/02/07 09:25:37;;;;;;;4.63;1.23;;;;;;;;;;5119420;28;20200;-72
2022/02/07 09:28:05;;;;;;;4.83;1.10;;;;;;;;;;5119812;28;20205;-72
2022/02/07 09:30:33;;;;;;;3.37;1.30;;;;;;;;;;5119600;28;20197;-72
2022/02/07 09:33:03;;;;;;;6.57;2.10;;;;;;;;;;5119637;28;20274;-72
2022/02/07 09:35:31;;;;;;;5.83;1.60;;;;;;;;;;5119663;27;20205;-71
2022/02/07 09:37:59;;;;;;;2.80;0.90;;;;;;;;;;5118909;28;20204;-71
2022/02/07 09:40:28;;;;;;;3.37;1.47;;;;;;;;;;5119699;28;20224;-72
2022/02/07 09:42:58;;;;;;;4.97;1.80;;;;;;;;;;5118852;28;20208;-72
2022/02/07 09:45:32;;;;;;;2.90;1.47;;;;;;;;;;5119036;28;20207;-71
2022/02/07 09:48:01;;;;;;;5.30;1.40;;;;;;;;;;5119458;28;20449;-72
2022/02/07 09:50:30;;;;;;;5.50;1.90;;;;;;;;;;5119004;28;20288;-71
2022/02/07 09:52:59;;;;;;;3.40;1.30;;;;;;;;;;5118968;28;20207;-71
2022/02/07 09:55:27;;;;;;;3.10;1.20;;;;;;;;;;5119036;28;20574;-72
2022/02/07 09:57:55;;;;;;;4.47;1.70;;;;;;;;;;5105801;28;20707;-72
2022/02/07 10:00:29;;;;;;;3.97;1.23;;;;;;;;;;5118507;28;20220;-72
2022/02/07 10:03:06;;;;;;;5.90;1.50;;;;;;;;;;5118946;28;20204;-71
2022/02/07 10:05:46;;;;;;;6.20;2.00;;;;;;;;;;5118925;28;20204;-71
2022/02/07 10:08:19;;;;;;;7.53;2.60;;;;;;;;;;5118521;28;20201;-71
2022/02/07 10:10:57;;;;;;;4.20;1.60;;;;;;;;;;5119194;28;20232;-71
2022/02/07 10:13:39;;;;;;;6.47;1.20;;;;;;;;;;5118849;28;20461;-71
2022/02/07 10:16:24;;;;;;;3.97;1.20;;;;;;;;;;5118990;28;20235;-71
2022/02/07 10:19:03;;;;;;;3.33;1.80;;;;;;;;;;5099120;28;20232;-71
2022/02/07 10:21:58;;;;;;;2.67;1.43;;;;;;;;;;5114039;28;20200;-71
2022/02/07 10:38:47;;;;;;;4.53;1.70;;;;;;;;;;5118006;27;20562;-71
2022/02/07 10:41:39;;;;;;;1.47;0.90;;;;;;;;;;5118275;28;20201;-71
2022/02/07 10:44:22;;;;;;;8.40;1.50;;;;;;;;;;5118350;28;20205;-71
2022/02/07 10:46:52;;;;;;;6.60;1.80;;;;;;;;;;5118311;28;20228;-71
2022/02/07 10:49:22;;;;;;;3.70;1.30;;;;;;;;;;5117629;28;20228;-71
2022/02/07 10:51:58;;;;;;;3.43;0.97;;;;;;;;;;5117853;28;20205;-71
2022/02/07 10:54:28;;;;;;;4.37;1.63;;;;;;;;;;5117980;28;20222;-71
2022/02/07 10:56:56;;;;;;;7.90;3.47;;;;;;;;;;5118004;28;20225;-71
2022/02/07 10:59:27;;;;;;;4.97;1.80;;;;;;;;;;5117901;28;20216;-71
2022/02/07 11:04:51;;;;;;;2.73;1.10;;;;;;;;;;5079279;28;20661;-72
2022/02/07 11:07:20;;;;;;;4.97;1.90;;;;;;;;;;5105400;28;20699;-72
2022/02/07 11:10:04;;;;;;;3.77;1.57;;;;;;;;;;5117779;28;20197;-72
2022/02/07 11:15:27;;;;;;;2.77;1.30;;;;;;;;;;5117692;28;20201;-72
2022/02/07 11:18:11;;;;;;;4.07;1.63;;;;;;;;;;5117845;28;20232;-71
2022/02/07 11:20:54;;;;;;;4.83;1.43;;;;;;;;;;5105332;28;20223;-72
2022/02/07 11:23:32;;;;;;;8.90;1.87;;;;;;;;;;5117980;28;20211;-72
2022/02/07 11:26:26;;;;;;;3.83;2.00;;;;;;;;;;5117772;28;20230;-72
2022/02/07 11:28:54;;;;;;;3.53;1.73;;;;;;;;;;5117705;28;20228;-71
2022/02/07 11:31:29;;;;;;;4.20;1.40;;;;;;;;;;5117971;28;20283;-72
2022/02/07 11:34:07;;;;;;;3.17;1.60;;;;;;;;;;5117525;28;20210;-71
2022/02/07 11:36:36;;;;;;;8.10;1.87;;;;;;;;;;5117161;28;20221;-71
2022/02/07 11:39:06;;;;;;;5.00;1.90;;;;;;;;;;5117691;28;20279;-71
2022/02/07 11:41:52;;;;;;;2.93;1.10;;;;;;;;;;5122084;28;20730;-72
2022/02/07 11:44:26;;;;;;;1.73;1.10;;;;;;;;;;5121831;28;20208;-71
2022/02/07 11:47:09;;;;;;;2.17;1.13;;;;;;;;;;5121790;28;20224;-71
2022/02/07 11:49:39;;;;;;;5.77;1.53;;;;;;;;;;5121635;28;20239;-72
2022/02/07 11:52:22;;;;;;;2.53;0.87;;;;;;;;;;5121490;28;20200;-72
2022/02/07 11:54:54;;;;;;;1.40;1.10;;;;;;;;;;5121503;27;20200;-72
2022/02/07 11:57:24;;;;;;;4.37;1.17;;;;;;;;;;5121147;28;20232;-72
2022/02/07 12:00:00;;;;;;;3.87;1.30;;;;;;;;;;5121394;28;20229;-72
2022/02/07 12:02:38;;;;;;;2.47;1.37;;;;;;;;;;5121263;28;20201;-71
2022/02/07 12:05:08;;;;;;;4.00;1.13;;;;;;;;;;5121567;28;20208;-72
2022/02/07 12:07:38;;;;;;;5.63;1.23;;;;;;;;;;5121137;28;20220;-72
2022/02/07 12:10:15;;;;;;;4.50;1.57;;;;;;;;;;5121281;28;20702;-72
2022/02/07 12:12:45;;;;;;;3.33;1.33;;;;;;;;;;5120968;28;20204;-72
2022/02/07 12:15:20;;;;;;;3.27;1.57;;;;;;;;;;5121180;28;20723;-72
2022/02/07 12:17:49;;;;;;;4.27;1.30;;;;;;;;;;5120638;28;20235;-72
2022/02/07 12:20:17;;;;;;;3.00;1.20;;;;;;;;;;5121282;28;20227;-72
2022/02/07 12:22:50;;;;;;;1.83;1.47;;;;;;;;;;5120327;27;20201;-72
2022/02/07 12:25:26;;;;;;;7.40;2.00;;;;;;;;;;5119543;28;20193;-72
2022/02/07 12:27:57;;;;;;;12.73;1.63;;;;;;;;;;5120701;28;20231;-71
2022/02/07 12:30:31;;;;;;;3.97;1.00;;;;;;;;;;5120993;28;20197;-71
2022/02/07 12:33:03;;;;;;;3.83;1.50;;;;;;;;;;5120572;28;20205;-72
2022/02/07 12:35:53;;;;;;;4.00;1.40;;;;;;;;;;5120063;28;20618;-71
2022/02/07 12:38:21;;;;;;;4.03;2.97;;;;;;;;;;5119250;28;20236;-71
2022/02/07 12:40:49;;;;;;;1.80;1.00;;;;;;;;;;5118279;28;20220;-71
2022/02/07 12:43:19;;;;;;;5.83;1.23;;;;;;;;;;5120315;28;20203;-71
2022/02/07 12:45:48;;;;;;;1.67;0.97;;;;;;;;;;5120748;28;20268;-71
2022/02/07 12:48:21;;;;;;;5.37;2.47;;;;;;;;;;5118338;28;20668;-71
2022/02/07 12:50:50;;;;;;;1.40;1.30;;;;;;;;;;5119957;27;20201;-71
2022/02/07 12:53:18;;;;;;;3.10;1.13;;;;;;;;;;5119469;28;20579;-72
2022/02/07 12:55:46;;;;;;;3.37;1.37;;;;;;;;;;5120072;28;20204;-72
2022/02/07 12:58:20;;;;;;;5.53;2.03;;;;;;;;;;5120351;28;20286;-71
2022/02/07 13:00:49;;;;;;;4.73;1.30;;;;;;;;;;5119796;28;20225;-71
2022/02/07 13:03:17;;;;;;;1.80;1.27;;;;;;;;;;5120394;28;20201;-71
2022/02/07 13:05:46;;;;;;;4.10;1.40;;;;;;;;;;5119245;28;20197;-71
2022/02/07 13:08:15;;;;;;;5.10;1.60;;;;;;;;;;5120087;28;20690;-71
2022/02/07 13:10:51;;;;;;;5.20;1.67;;;;;;;;;;5119885;28;20203;-72
2022/02/07 13:13:29;;;;;;;4.87;1.30;;;;;;;;;;5119376;28;20208;-71
2022/02/07 13:15:59;;;;;;;3.40;1.40;;;;;;;;;;5119212;28;20228;-71
2022/02/07 13:18:33;;;;;;;9.20;2.03;;;;;;;;;;5118628;28;20208;-69
2022/02/07 13:21:03;;;;;;;3.50;1.80;;;;;;;;;;5104847;28;20222;-69
2022/02/07 13:23:31;;;;;;;3.70;1.10;;;;;;;;;;5102125;28;20193;-71
2022/02/07 13:26:02;;;;;;;6.70;1.47;;;;;;;;;;5108622;28;20244;-71
2022/02/07 13:28:31;;;;;;;3.33;1.20;;;;;;;;;;5111818;28;20200;-70
2022/02/07 13:31:01;;;;;;;3.30;1.23;;;;;;;;;;5119273;28;20215;-71
2022/02/07 13:33:29;;;;;;;4.50;1.50;;;;;;;;;;5119008;27;20264;-72
2022/02/07 13:35:59;;;;;;;3.83;1.90;;;;;;;;;;5117484;28;20960;-69
2022/02/07 13:38:27;;;;;;;4.00;1.20;;;;;;;;;;5104862;28;20208;-68
2022/02/07 13:41:01;;;;;;;3.50;1.60;;;;;;;;;;5107766;28;20214;-67
2022/02/07 13:43:30;;;;;;;2.27;1.23;;;;;;;;;;5119651;28;20296;-70
2022/02/07 13:46:02;;;;;;;10.63;1.60;;;;;;;;;;5119154;28;20633;-69
2022/02/07 13:48:31;;;;;;;4.50;1.37;;;;;;;;;;5119553;28;20236;-74
2022/02/07 13:51:00;;;;;;;3.10;1.57;;;;;;;;;;5118910;28;20918;-78
2022/02/07 13:53:29;;;;;;;3.00;1.30;;;;;;;;;;5119190;28;20454;-77
2022/02/07 13:55:58;;;;;;;3.07;1.20;;;;;;;;;;5119228;28;20213;-77
2022/02/07 13:58:33;;;;;;;3.40;1.10;;;;;;;;;;5118915;28;20288;-77
2022/02/07 14:01:03;;;;;;;5.97;1.57;;;;;;;;;;5119179;28;20221;-77
2022/02/07 14:03:33;;;;;;;3.10;1.10;;;;;;;;;;5118988;28;20226;-76
2022/02/07 14:06:06;;;;;;;9.50;1.83;;;;;;;;;;5118716;28;20232;-76
2022/02/07 14:08:36;;;;;;;7.40;1.73;;;;;;;;;;5118642;28;20283;-76
2022/02/07 14:11:05;;;;;;;4.23;1.30;;;;;;;;;;5118960;28;20597;-77
2022/02/07 14:13:34;;;;;;;3.60;1.13;;;;;;;;;;5118346;28;20201;-76
2022/02/07 14:16:04;;;;;;;3.33;1.40;;;;;;;;;;5119202;28;20260;-77
2022/02/07 14:18:32;;;;;;;3.80;0.93;;;;;;;;;;5118292;28;20672;-76
2022/02/07 14:21:08;;;;;;;2.97;1.07;;;;;;;;;;5118825;28;20227;-77
2022/02/07 14:23:37;;;;;;;3.20;1.37;;;;;;;;;;5118395;28;20200;-77
2022/02/07 14:26:32;;;;;;;2.70;1.10;;;;;;;;;;5118595;28;20635;-76
2022/02/07 14:29:00;;;;;;;1.73;1.60;;;;;;;;;;5118347;28;20196;-76
2022/02/07 14:31:30;;;;;;;3.30;1.37;;;;;;;;;;5118756;28;20207;-76
2022/02/07 14:33:58;;;;;;;3.93;1.10;;;;;;;;;;5118226;28;20204;-73
2022/02/07 14:36:28;;;;;;;1.63;0.97;;;;;;;;;;5117900;28;20227;-73
2022/02/07 14:38:59;;;;;;;3.33;0.93;;;;;;;;;;5118744;28;20200;-74
2022/02/07 14:41:27;;;;;;;1.90;1.00;;;;;;;;;;5117927;28;20219;-74
2022/02/07 14:47:39;;;;;;;3.23;1.23;;;;;;;;;;5117820;28;20203;-70
2022/02/07 14:50:09;;;;;;;4.20;1.60;;;;;;;;;;5118203;28;20237;-70
2022/02/07 14:52:37;;;;;;;4.37;1.03;;;;;;;;;;5117833;28;20193;-70
2022/02/07 14:55:08;;;;;;;3.00;1.23;;;;;;;;;;5117870;28;20702;-70
2022/02/07 14:57:36;;;;;;;6.97;1.50;;;;;;;;;;5117453;28;20231;-70
2022/02/07 15:00:05;;;;;;;2.93;0.93;;;;;;;;;;5118023;28;20591;-69
2022/02/07 15:02:34;;;;;;;5.47;1.70;;;;;;;;;;5117847;28;20312;-69
2022/02/07 15:05:03;;;;;;;2.73;1.27;;;;;;;;;;5118222;28;20291;-69
2022/02/07 15:07:31;;;;;;;3.70;1.63;;;;;;;;;;5117706;28;20224;-71
2022/02/07 15:09:59;;;;;;;2.20;1.27;;;;;;;;;;5112493;28;20204;-69
2022/02/07 15:12:28;;;;;;;6.87;2.30;;;;;;;;;;5112243;28;20193;-71
2022/02/07 15:14:56;;;;;;;6.83;1.23;;;;;;;;;;5111807;28;20193;-70
2022/02/07 15:17:28;;;;;;;3.93;1.53;;;;;;;;;;5114757;28;20303;-69
2022/02/07 15:19:57;;;;;;;5.57;1.43;;;;;;;;;;5113078;28;20254;-69
2022/02/07 15:22:26;;;;;;;3.73;1.83;;;;;;;;;;5110897;28;20217;-69
2022/02/07 15:24:55;;;;;;;2.10;1.50;;;;;;;;;;5104358;28;20197;-70
2022/02/07 15:27:25;;;;;;;6.70;1.60;;;;;;;;;;5117559;28;20657;-70
2022/02/07 15:29:59;;;;;;;4.30;1.40;;;;;;;;;;5103619;28;20615;-69
2022/02/07 15:32:30;;;;;;;5.80;1.30;;;;;;;;;;5117645;28;20197;-68
2022/02/07 15:35:00;;;;;;;6.47;1.33;;;;;;;;;;5116757;28;20223;-69
2022/02/07 15:37:29;;;;;;;2.03;1.00;;;;;;;;;;5117035;28;20256;-69
2022/02/07 15:39:58;;;;;;;4.83;1.20;;;;;;;;;;5114468;28;20546;-69
2022/02/07 15:42:26;;;;;;;1.87;1.10;;;;;;;;;;5118320;28;20223;-68
2022/02/07 15:44:56;;;;;;;2.77;1.40;;;;;;;;;;5119238;28;20208;-68
2022/02/07 15:47:27;;;;;;;3.13;1.57;;;;;;;;;;5122211;28;20222;-68
2022/02/07 15:49:55;;;;;;;3.80;1.40;;;;;;;;;;5123587;28;20319;-69
2022/02/07 15:52:24;;;;;;;2.70;1.47;;;;;;;;;;5126697;27;20188;-69
2022/02/07 15:54:54;;;;;;;5.77;1.37;;;;;;;;;;5121029;28;20197;-68
2022/02/07 15:57:22;;;;;;;2.57;1.47;;;;;;;;;;5125068;28;20216;-69
2022/02/07 15:59:50;;;;;;;6.67;1.57;;;;;;;;;;5119255;28;20232;-69
2022/02/07 16:02:18;;;;;;;2.47;1.17;;;;;;;;;;5116945;28;20711;-69
2022/02/07 16:04:46;;;;;;;2.10;1.17;;;;;;;;;;5115080;28;20625;-69
2022/02/07 16:07:14;;;;;;;6.13;1.13;;;;;;;;;;5117133;28;20271;-69
2022/02/07 16:09:43;;;;;;;2.87;1.33;;;;;;;;;;5103757;28;20209;-70
2022/02/07 16:12:14;;;;;;;5.17;1.67;;;;;;;;;;5117419;28;20640;-69
2022/02/07 16:14:42;;;;;;;4.17;1.57;;;;;;;;;;5116870;28;20544;-69
2022/02/07 16:17:10;;;;;;;2.23;1.13;;;;;;;;;;5117295;28;20221;-69
2022/02/07 16:19:39;;;;;;;4.30;1.47;;;;;;;;;;5112508;28;20211;-69
2022/02/07 16:22:08;;;;;;;3.70;1.50;;;;;;;;;;5117156;28;20225;-69
2022/02/07 16:24:38;;;;;;;5.20;1.73;;;;;;;;;;5116597;28;20288;-69
2022/02/07 16:27:07;;;;;;;3.83;1.50;;;;;;;;;;5118392;28;20345;-69
2022/02/07 16:29:35;;;;;;;3.60;1.47;;;;;;;;;;5107481;28;20197;-68
2022/02/07 16:32:04;;;;;;;3.67;1.23;;;;;;;;;;5120639;28;20288;-69